sensor_id;sensor_type;location;lat;lon;timestamp;P1;durP1;ratioP1;P2;durP2;ratioP2
36501;SDS011;25393;46.108;3.390;2022-12-05T00:01:31;42.47;;;6.27;;
36501;SDS011;25393;46.108;3.390;2022-12-05T00:04:09;17.13;;;5.90;;
36501;SDS011;25393;46.108;3.390;2022-12-05T00:06:38;13.83;;;5.27;;
36501;SDS011;25393;46.108;3.390;2022-12-05T00:09:07;21.53;;;5.60;;
36501;SDS011;25393;46.108;3.390;2022-12-05T00:11:36;19.40;;;5.53;;
36501;SDS011;25393;46.108;3.390;2022-12-05T00:14:04;32.90;;;5.17;;
36501;SDS011;25393;46.108;3.390;2022-12-05T00:16:34;19.23;;;4.27;;
36501;SDS011;25393;46.108;3.390;2022-12-05T00:19:03;57.60;;;5.80;;
36501;SDS011;25393;46.108;3.390;2022-12-05T00:21:32;18.63;;;4.90;;
36501;SDS011;25393;46.108;3.390;2022-12-05T00:24:00;35.80;;;5.87;;
36501;SDS011;25393;46.108;3.390;2022-12-05T00:26:30;27.27;;;6.90;;
36501;SDS011;25393;46.108;3.390;2022-12-05T00:28:57;21.40;;;5.23;;
36501;SDS011;25393;46.108;3.390;2022-12-05T00:31:24;10.07;;;5.43;;
36501;SDS011;25393;46.108;3.390;2022-12-05T00:33:53;15.50;;;5.10;;
36501;SDS011;25393;46.108;3.390;2022-12-05T00:36:24;8.23;;;4.97;;
36501;SDS011;25393;46.108;3.390;2022-12-05T00:38:53;10.50;;;4.90;;
36501;SDS011;25393;46.108;3.390;2022-12-05T00:41:22;9.13;;;5.23;;
36501;SDS011;25393;46.108;3.390;2022-12-05T00:43:52;15.93;;;6.87;;
36501;SDS011;25393;46.108;3.390;2022-12-05T00:46:20;9.83;;;5.53;;
36501;SDS011;25393;46.108;3.390;2022-12-05T00:48:50;15.00;;;5.97;;
36501;SDS011;25393;46.108;3.390;2022-12-05T00:51:19;11.40;;;5.50;;
36501;SDS011;25393;46.108;3.390;2022-12-05T00:53:48;16.23;;;6.00;;
36501;SDS011;25393;46.108;3.390;2022-12-05T00:56:18;15.40;;;5.60;;
36501;SDS011;25393;46.108;3.390;2022-12-05T00:58:47;10.70;;;4.93;;
36501;SDS011;25393;46.108;3.390;2022-12-05T01:01:15;7.83;;;4.93;;
36501;SDS011;25393;46.108;3.390;2022-12-05T01:03:47;6.40;;;4.20;;
36501;SDS011;25393;46.108;3.390;2022-12-05T01:06:14;9.53;;;4.63;;
36501;SDS011;25393;46.108;3.390;2022-12-05T01:08:41;7.50;;;4.23;;
36501;SDS011;25393;46.108;3.390;2022-12-05T01:11:09;8.53;;;4.80;;
36501;SDS011;25393;46.108;3.390;2022-12-05T01:13:36;8.77;;;4.80;;
36501;SDS011;25393;46.108;3.390;2022-12-05T01:16:03;8.43;;;5.07;;
36501;SDS011;25393;46.108;3.390;2022-12-05T01:18:30;9.73;;;5.00;;
36501;SDS011;25393;46.108;3.390;2022-12-05T01:20:57;8.57;;;4.80;;
36501;SDS011;25393;46.108;3.390;2022-12-05T01:23:31;10.23;;;6.17;;
36501;SDS011;25393;46.108;3.390;2022-12-05T01:25:58;12.17;;;5.23;;
36501;SDS011;25393;46.108;3.390;2022-12-05T01:28:30;8.73;;;5.23;;
36501;SDS011;25393;46.108;3.390;2022-12-05T01:30:57;9.00;;;5.50;;
36501;SDS011;25393;46.108;3.390;2022-12-05T01:33:24;8.10;;;4.37;;
36501;SDS011;25393;46.108;3.390;2022-12-05T01:35:51;10.00;;;4.37;;
36501;SDS011;25393;46.108;3.390;2022-12-05T01:38:17;7.47;;;4.70;;
36501;SDS011;25393;46.108;3.390;2022-12-05T01:40:44;6.57;;;3.57;;
36501;SDS011;25393;46.108;3.390;2022-12-05T01:43:15;9.53;;;4.30;;
36501;SDS011;25393;46.108;3.390;2022-12-05T01:45:44;7.00;;;4.07;;
36501;SDS011;25393;46.108;3.390;2022-12-05T01:50:46;10.30;;;4.23;;
36501;SDS011;25393;46.108;3.390;2022-12-05T01:53:15;6.20;;;4.10;;
36501;SDS011;25393;46.108;3.390;2022-12-05T01:55:43;7.00;;;4.57;;
36501;SDS011;25393;46.108;3.390;2022-12-05T01:58:11;5.37;;;3.37;;
36501;SDS011;25393;46.108;3.390;2022-12-05T02:00:38;5.10;;;3.50;;
36501;SDS011;25393;46.108;3.390;2022-12-05T02:03:05;6.83;;;4.23;;
36501;SDS011;25393;46.108;3.390;2022-12-05T02:05:35;6.23;;;3.40;;
36501;SDS011;25393;46.108;3.390;2022-12-05T02:08:04;6.20;;;3.73;;
36501;SDS011;25393;46.108;3.390;2022-12-05T02:10:34;7.90;;;3.07;;
36501;SDS011;25393;46.108;3.390;2022-12-05T02:13:17;4.80;;;3.00;;
36501;SDS011;25393;46.108;3.390;2022-12-05T02:16:04;5.63;;;3.33;;
36501;SDS011;25393;46.108;3.390;2022-12-05T02:21:54;6.07;;;3.73;;
36501;SDS011;25393;46.108;3.390;2022-12-05T02:30:21;6.63;;;3.10;;
36501;SDS011;25393;46.108;3.390;2022-12-05T02:32:51;3.10;;;2.30;;
36501;SDS011;25393;46.108;3.390;2022-12-05T02:41:55;5.73;;;3.07;;
36501;SDS011;25393;46.108;3.390;2022-12-05T02:44:31;5.90;;;3.30;;
36501;SDS011;25393;46.108;3.390;2022-12-05T02:47:04;6.80;;;3.30;;
36501;SDS011;25393;46.108;3.390;2022-12-05T02:49:34;6.10;;;3.00;;
36501;SDS011;25393;46.108;3.390;2022-12-05T02:52:04;6.10;;;3.53;;
36501;SDS011;25393;46.108;3.390;2022-12-05T02:54:39;5.03;;;3.00;;
36501;SDS011;25393;46.108;3.390;2022-12-05T02:57:08;5.60;;;3.13;;
36501;SDS011;25393;46.108;3.390;2022-12-05T02:59:36;8.47;;;3.23;;
36501;SDS011;25393;46.108;3.390;2022-12-05T03:02:03;4.60;;;2.53;;
36501;SDS011;25393;46.108;3.390;2022-12-05T03:04:30;4.17;;;2.60;;
36501;SDS011;25393;46.108;3.390;2022-12-05T03:07:01;4.60;;;2.67;;
36501;SDS011;25393;46.108;3.390;2022-12-05T03:09:38;5.63;;;3.10;;
36501;SDS011;25393;46.108;3.390;2022-12-05T03:14:43;5.73;;;3.20;;
36501;SDS011;25393;46.108;3.390;2022-12-05T03:17:19;5.80;;;3.50;;
36501;SDS011;25393;46.108;3.390;2022-12-05T03:23:11;4.33;;;2.30;;
36501;SDS011;25393;46.108;3.390;2022-12-05T03:26:02;4.47;;;2.40;;
36501;SDS011;25393;46.108;3.390;2022-12-05T03:28:47;5.00;;;2.80;;
36501;SDS011;25393;46.108;3.390;2022-12-05T03:31:24;5.43;;;3.37;;
36501;SDS011;25393;46.108;3.390;2022-12-05T03:34:03;5.50;;;2.83;;
36501;SDS011;25393;46.108;3.390;2022-12-05T03:36:37;6.27;;;3.27;;
36501;SDS011;25393;46.108;3.390;2022-12-05T03:39:09;5.00;;;2.90;;
36501;SDS011;25393;46.108;3.390;2022-12-05T03:42:05;4.50;;;3.33;;
36501;SDS011;25393;46.108;3.390;2022-12-05T03:45:02;6.30;;;3.43;;
36501;SDS011;25393;46.108;3.390;2022-12-05T03:47:35;4.20;;;3.33;;
36501;SDS011;25393;46.108;3.390;2022-12-05T03:50:19;6.97;;;3.50;;
36501;SDS011;25393;46.108;3.390;2022-12-05T03:52:57;4.20;;;3.37;;
36501;SDS011;25393;46.108;3.390;2022-12-05T03:55:45;5.97;;;3.57;;
36501;SDS011;25393;46.108;3.390;2022-12-05T03:58:23;6.03;;;3.37;;
36501;SDS011;25393;46.108;3.390;2022-12-05T04:00:53;7.53;;;3.70;;
36501;SDS011;25393;46.108;3.390;2022-12-05T04:03:25;9.67;;;3.90;;
36501;SDS011;25393;46.108;3.390;2022-12-05T04:06:13;6.47;;;3.50;;
36501;SDS011;25393;46.108;3.390;2022-12-05T04:08:58;5.93;;;3.50;;
36501;SDS011;25393;46.108;3.390;2022-12-05T04:11:31;6.10;;;3.60;;
36501;SDS011;25393;46.108;3.390;2022-12-05T04:14:07;4.80;;;3.43;;
36501;SDS011;25393;46.108;3.390;2022-12-05T04:16:40;6.67;;;3.00;;
36501;SDS011;25393;46.108;3.390;2022-12-05T04:19:37;5.90;;;2.97;;
36501;SDS011;25393;46.108;3.390;2022-12-05T04:22:28;5.43;;;3.70;;
36501;SDS011;25393;46.108;3.390;2022-12-05T04:24:56;5.50;;;2.90;;
36501;SDS011;25393;46.108;3.390;2022-12-05T04:30:20;5.17;;;2.53;;
36501;SDS011;25393;46.108;3.390;2022-12-05T04:38:44;6.03;;;2.67;;
36501;SDS011;25393;46.108;3.390;2022-12-05T04:41:18;4.87;;;3.47;;
36501;SDS011;25393;46.108;3.390;2022-12-05T04:43:52;5.33;;;3.23;;
36501;SDS011;25393;46.108;3.390;2022-12-05T04:46:23;13.20;;;3.00;;
36501;SDS011;25393;46.108;3.390;2022-12-05T04:48:57;6.10;;;3.40;;
36501;SDS011;25393;46.108;3.390;2022-12-05T04:51:28;7.10;;;3.17;;
36501;SDS011;25393;46.108;3.390;2022-12-05T04:53:59;4.67;;;2.70;;
36501;SDS011;25393;46.108;3.390;2022-12-05T04:56:30;6.27;;;3.47;;
36501;SDS011;25393;46.108;3.390;2022-12-05T04:59:01;5.37;;;3.50;;
36501;SDS011;25393;46.108;3.390;2022-12-05T05:01:29;6.40;;;3.37;;
36501;SDS011;25393;46.108;3.390;2022-12-05T05:04:01;8.53;;;3.53;;
36501;SDS011;25393;46.108;3.390;2022-12-05T05:06:37;5.53;;;3.37;;
36501;SDS011;25393;46.108;3.390;2022-12-05T05:09:07;8.53;;;3.57;;
36501;SDS011;25393;46.108;3.390;2022-12-05T05:11:36;5.87;;;3.47;;
36501;SDS011;25393;46.108;3.390;2022-12-05T05:14:03;6.20;;;3.10;;
36501;SDS011;25393;46.108;3.390;2022-12-05T05:16:32;7.00;;;3.80;;
36501;SDS011;25393;46.108;3.390;2022-12-05T05:19:03;4.37;;;2.93;;
36501;SDS011;25393;46.108;3.390;2022-12-05T05:21:32;5.00;;;2.73;;
36501;SDS011;25393;46.108;3.390;2022-12-05T05:24:00;5.53;;;2.83;;
36501;SDS011;25393;46.108;3.390;2022-12-05T05:26:29;8.77;;;3.10;;
36501;SDS011;25393;46.108;3.390;2022-12-05T05:28:57;4.33;;;2.57;;
36501;SDS011;25393;46.108;3.390;2022-12-05T05:31:23;5.03;;;2.90;;
36501;SDS011;25393;46.108;3.390;2022-12-05T05:33:51;5.90;;;3.20;;
36501;SDS011;25393;46.108;3.390;2022-12-05T05:36:19;5.77;;;2.93;;
36501;SDS011;25393;46.108;3.390;2022-12-05T05:38:47;4.13;;;2.97;;
36501;SDS011;25393;46.108;3.390;2022-12-05T05:41:20;10.20;;;3.53;;
36501;SDS011;25393;46.108;3.390;2022-12-05T05:43:48;5.43;;;2.87;;
36501;SDS011;25393;46.108;3.390;2022-12-05T05:46:18;6.60;;;3.07;;
36501;SDS011;25393;46.108;3.390;2022-12-05T05:48:46;6.33;;;3.23;;
36501;SDS011;25393;46.108;3.390;2022-12-05T05:51:13;4.13;;;2.90;;
36501;SDS011;25393;46.108;3.390;2022-12-05T05:53:44;5.60;;;2.83;;
36501;SDS011;25393;46.108;3.390;2022-12-05T05:56:13;4.27;;;3.07;;
36501;SDS011;25393;46.108;3.390;2022-12-05T05:58:47;4.50;;;2.90;;
36501;SDS011;25393;46.108;3.390;2022-12-05T06:01:19;6.20;;;3.10;;
36501;SDS011;25393;46.108;3.390;2022-12-05T06:03:47;4.47;;;2.77;;
36501;SDS011;25393;46.108;3.390;2022-12-05T06:06:14;4.00;;;3.03;;
36501;SDS011;25393;46.108;3.390;2022-12-05T06:08:42;5.47;;;2.77;;
36501;SDS011;25393;46.108;3.390;2022-12-05T06:11:11;6.20;;;3.20;;
36501;SDS011;25393;46.108;3.390;2022-12-05T06:13:38;5.63;;;3.40;;
36501;SDS011;25393;46.108;3.390;2022-12-05T06:16:07;4.73;;;3.63;;
36501;SDS011;25393;46.108;3.390;2022-12-05T06:18:37;8.97;;;3.90;;
36501;SDS011;25393;46.108;3.390;2022-12-05T06:21:03;6.83;;;3.40;;
36501;SDS011;25393;46.108;3.390;2022-12-05T06:23:41;9.63;;;4.47;;
36501;SDS011;25393;46.108;3.390;2022-12-05T06:26:09;9.60;;;4.87;;
36501;SDS011;25393;46.108;3.390;2022-12-05T06:28:38;11.57;;;4.37;;
36501;SDS011;25393;46.108;3.390;2022-12-05T06:31:11;9.83;;;5.17;;
36501;SDS011;25393;46.108;3.390;2022-12-05T06:33:40;10.10;;;4.27;;
36501;SDS011;25393;46.108;3.390;2022-12-05T06:36:09;6.30;;;3.40;;
36501;SDS011;25393;46.108;3.390;2022-12-05T06:38:38;8.10;;;4.10;;
36501;SDS011;25393;46.108;3.390;2022-12-05T06:41:08;8.97;;;3.33;;
36501;SDS011;25393;46.108;3.390;2022-12-05T06:43:39;6.77;;;3.57;;
36501;SDS011;25393;46.108;3.390;2022-12-05T06:46:07;4.70;;;3.20;;
36501;SDS011;25393;46.108;3.390;2022-12-05T06:48:37;5.33;;;3.17;;
36501;SDS011;25393;46.108;3.390;2022-12-05T06:51:04;8.00;;;3.43;;
36501;SDS011;25393;46.108;3.390;2022-12-05T06:53:32;5.40;;;3.50;;
36501;SDS011;25393;46.108;3.390;2022-12-05T06:56:02;4.90;;;2.80;;
36501;SDS011;25393;46.108;3.390;2022-12-05T06:58:30;6.90;;;3.57;;
36501;SDS011;25393;46.108;3.390;2022-12-05T07:00:57;3.63;;;2.70;;
36501;SDS011;25393;46.108;3.390;2022-12-05T07:03:42;7.30;;;3.67;;
36501;SDS011;25393;46.108;3.390;2022-12-05T07:06:09;5.03;;;3.10;;
36501;SDS011;25393;46.108;3.390;2022-12-05T07:08:41;6.57;;;2.90;;
36501;SDS011;25393;46.108;3.390;2022-12-05T07:11:08;7.23;;;3.10;;
36501;SDS011;25393;46.108;3.390;2022-12-05T07:13:38;5.10;;;3.00;;
36501;SDS011;25393;46.108;3.390;2022-12-05T07:16:04;3.70;;;3.10;;
36501;SDS011;25393;46.108;3.390;2022-12-05T07:18:33;7.47;;;3.40;;
36501;SDS011;25393;46.108;3.390;2022-12-05T07:21:01;7.93;;;3.63;;
36501;SDS011;25393;46.108;3.390;2022-12-05T07:23:39;5.30;;;3.40;;
36501;SDS011;25393;46.108;3.390;2022-12-05T07:26:08;5.43;;;3.30;;
36501;SDS011;25393;46.108;3.390;2022-12-05T07:28:38;5.97;;;3.53;;
36501;SDS011;25393;46.108;3.390;2022-12-05T07:31:09;7.83;;;4.30;;
36501;SDS011;25393;46.108;3.390;2022-12-05T07:33:41;7.20;;;4.03;;
36501;SDS011;25393;46.108;3.390;2022-12-05T07:36:10;7.33;;;3.30;;
36501;SDS011;25393;46.108;3.390;2022-12-05T07:38:42;7.00;;;3.57;;
36501;SDS011;25393;46.108;3.390;2022-12-05T07:41:11;6.30;;;3.37;;
36501;SDS011;25393;46.108;3.390;2022-12-05T07:43:43;7.50;;;3.47;;
36501;SDS011;25393;46.108;3.390;2022-12-05T07:46:09;9.77;;;3.97;;
36501;SDS011;25393;46.108;3.390;2022-12-05T07:48:45;4.23;;;3.17;;
36501;SDS011;25393;46.108;3.390;2022-12-05T07:51:13;6.70;;;3.37;;
36501;SDS011;25393;46.108;3.390;2022-12-05T07:53:40;6.53;;;3.73;;
36501;SDS011;25393;46.108;3.390;2022-12-05T07:56:13;13.17;;;6.37;;
36501;SDS011;25393;46.108;3.390;2022-12-05T07:58:43;36.63;;;15.03;;
36501;SDS011;25393;46.108;3.390;2022-12-05T08:01:15;16.43;;;9.40;;
36501;SDS011;25393;46.108;3.390;2022-12-05T08:03:43;7.17;;;4.97;;
36501;SDS011;25393;46.108;3.390;2022-12-05T08:06:14;5.63;;;3.50;;
36501;SDS011;25393;46.108;3.390;2022-12-05T08:08:43;7.73;;;4.00;;
36501;SDS011;25393;46.108;3.390;2022-12-05T08:11:14;7.27;;;3.93;;
36501;SDS011;25393;46.108;3.390;2022-12-05T08:13:43;4.40;;;3.30;;
36501;SDS011;25393;46.108;3.390;2022-12-05T08:16:12;7.90;;;4.67;;
36501;SDS011;25393;46.108;3.390;2022-12-05T08:18:41;5.47;;;3.57;;
36501;SDS011;25393;46.108;3.390;2022-12-05T08:21:09;6.40;;;4.10;;
36501;SDS011;25393;46.108;3.390;2022-12-05T08:23:38;7.13;;;3.90;;
36501;SDS011;25393;46.108;3.390;2022-12-05T08:26:08;9.67;;;3.20;;
36501;SDS011;25393;46.108;3.390;2022-12-05T08:28:38;8.23;;;3.77;;
36501;SDS011;25393;46.108;3.390;2022-12-05T08:31:13;6.97;;;3.87;;
36501;SDS011;25393;46.108;3.390;2022-12-05T08:33:41;9.23;;;4.00;;
36501;SDS011;25393;46.108;3.390;2022-12-05T08:36:10;6.47;;;4.10;;
36501;SDS011;25393;46.108;3.390;2022-12-05T08:38:44;7.00;;;4.40;;
36501;SDS011;25393;46.108;3.390;2022-12-05T08:41:13;6.43;;;3.80;;
36501;SDS011;25393;46.108;3.390;2022-12-05T08:43:42;7.77;;;4.50;;
36501;SDS011;25393;46.108;3.390;2022-12-05T08:46:12;6.23;;;3.67;;
36501;SDS011;25393;46.108;3.390;2022-12-05T08:48:39;7.43;;;4.07;;
36501;SDS011;25393;46.108;3.390;2022-12-05T08:51:10;8.23;;;4.53;;
36501;SDS011;25393;46.108;3.390;2022-12-05T08:53:39;7.30;;;4.30;;
36501;SDS011;25393;46.108;3.390;2022-12-05T08:56:10;12.10;;;5.87;;
36501;SDS011;25393;46.108;3.390;2022-12-05T08:58:39;6.30;;;4.53;;
36501;SDS011;25393;46.108;3.390;2022-12-05T09:01:10;7.97;;;4.57;;
36501;SDS011;25393;46.108;3.390;2022-12-05T09:03:42;8.37;;;4.47;;
36501;SDS011;25393;46.108;3.390;2022-12-05T09:08:47;8.97;;;4.80;;
36501;SDS011;25393;46.108;3.390;2022-12-05T09:11:16;6.50;;;3.93;;
36501;SDS011;25393;46.108;3.390;2022-12-05T09:13:45;6.13;;;3.60;;
36501;SDS011;25393;46.108;3.390;2022-12-05T09:16:16;5.27;;;3.80;;
36501;SDS011;25393;46.108;3.390;2022-12-05T09:18:46;7.70;;;3.87;;
36501;SDS011;25393;46.108;3.390;2022-12-05T09:21:15;7.80;;;3.63;;
36501;SDS011;25393;46.108;3.390;2022-12-05T09:23:43;6.67;;;3.43;;
36501;SDS011;25393;46.108;3.390;2022-12-05T09:26:11;7.40;;;4.37;;
36501;SDS011;25393;46.108;3.390;2022-12-05T09:28:39;5.37;;;3.80;;
36501;SDS011;25393;46.108;3.390;2022-12-05T09:31:09;7.40;;;4.00;;
36501;SDS011;25393;46.108;3.390;2022-12-05T09:33:38;8.05;;;3.67;;
36501;SDS011;25393;46.108;3.390;2022-12-05T09:36:08;5.35;;;3.95;;
36501;SDS011;25393;46.108;3.390;2022-12-05T09:38:38;5.65;;;3.17;;
36501;SDS011;25393;46.108;3.390;2022-12-05T09:44:30;7.72;;;3.60;;
36501;SDS011;25393;46.108;3.390;2022-12-05T09:49:52;5.78;;;3.05;;
36501;SDS011;25393;46.108;3.390;2022-12-05T09:52:27;4.82;;;3.00;;
36501;SDS011;25393;46.108;3.390;2022-12-05T09:54:57;4.00;;;2.97;;
36501;SDS011;25393;46.108;3.390;2022-12-05T09:57:35;4.85;;;2.97;;
36501;SDS011;25393;46.108;3.390;2022-12-05T10:00:08;6.88;;;3.42;;
36501;SDS011;25393;46.108;3.390;2022-12-05T10:02:39;7.82;;;3.22;;
36501;SDS011;25393;46.108;3.390;2022-12-05T10:05:21;4.85;;;2.50;;
36501;SDS011;25393;46.108;3.390;2022-12-05T10:19:27;5.55;;;3.50;;
36501;SDS011;25393;46.108;3.390;2022-12-05T10:22:02;4.60;;;3.15;;
36501;SDS011;25393;46.108;3.390;2022-12-05T10:24:46;5.50;;;2.80;;
36501;SDS011;25393;46.108;3.390;2022-12-05T10:27:18;3.67;;;2.38;;
36501;SDS011;25393;46.108;3.390;2022-12-05T10:29:52;3.22;;;2.22;;
36501;SDS011;25393;46.108;3.390;2022-12-05T10:32:29;4.47;;;2.25;;
36501;SDS011;25393;46.108;3.390;2022-12-05T10:35:15;4.20;;;2.65;;
36501;SDS011;25393;46.108;3.390;2022-12-05T10:37:51;4.78;;;2.03;;
36501;SDS011;25393;46.108;3.390;2022-12-05T10:40:21;3.80;;;2.22;;
36501;SDS011;25393;46.108;3.390;2022-12-05T10:42:48;3.65;;;2.15;;
36501;SDS011;25393;46.108;3.390;2022-12-05T10:45:17;3.08;;;2.03;;
36501;SDS011;25393;46.108;3.390;2022-12-05T10:47:47;3.22;;;2.42;;
36501;SDS011;25393;46.108;3.390;2022-12-05T10:50:28;3.38;;;2.28;;
36501;SDS011;25393;46.108;3.390;2022-12-05T10:53:02;5.93;;;2.45;;
36501;SDS011;25393;46.108;3.390;2022-12-05T10:55:33;4.20;;;2.35;;
36501;SDS011;25393;46.108;3.390;2022-12-05T10:58:30;4.28;;;2.30;;
36501;SDS011;25393;46.108;3.390;2022-12-05T11:00:57;4.97;;;2.75;;
36501;SDS011;25393;46.108;3.390;2022-12-05T11:03:34;2.58;;;1.90;;
36501;SDS011;25393;46.108;3.390;2022-12-05T11:08:51;3.15;;;2.22;;
36501;SDS011;25393;46.108;3.390;2022-12-05T11:11:35;5.05;;;2.70;;
36501;SDS011;25393;46.108;3.390;2022-12-05T11:14:03;2.70;;;2.00;;
36501;SDS011;25393;46.108;3.390;2022-12-05T11:16:35;3.50;;;2.20;;
36501;SDS011;25393;46.108;3.390;2022-12-05T11:19:17;4.55;;;2.25;;
36501;SDS011;25393;46.108;3.390;2022-12-05T11:21:45;3.90;;;2.63;;
36501;SDS011;25393;46.108;3.390;2022-12-05T11:24:30;2.92;;;2.22;;
36501;SDS011;25393;46.108;3.390;2022-12-05T11:29:44;3.70;;;2.58;;
36501;SDS011;25393;46.108;3.390;2022-12-05T11:32:20;3.72;;;2.50;;
36501;SDS011;25393;46.108;3.390;2022-12-05T11:34:56;5.07;;;2.70;;
36501;SDS011;25393;46.108;3.390;2022-12-05T11:37:49;4.45;;;2.50;;
36501;SDS011;25393;46.108;3.390;2022-12-05T11:40:33;4.55;;;2.42;;
36501;SDS011;25393;46.108;3.390;2022-12-05T12:03:28;3.25;;;1.88;;
36501;SDS011;25393;46.108;3.390;2022-12-05T12:33:44;4.10;;;2.50;;
36501;SDS011;25393;46.108;3.390;2022-12-05T12:36:30;3.55;;;2.20;;
36501;SDS011;25393;46.108;3.390;2022-12-05T12:39:14;5.38;;;2.30;;
36501;SDS011;25393;46.108;3.390;2022-12-05T12:47:17;2.20;;;1.90;;
36501;SDS011;25393;46.108;3.390;2022-12-05T12:50:14;5.25;;;2.05;;
36501;SDS011;25393;46.108;3.390;2022-12-05T12:53:02;4.10;;;1.88;;
36501;SDS011;25393;46.108;3.390;2022-12-05T13:03:26;2.53;;;1.50;;
36501;SDS011;25393;46.108;3.390;2022-12-05T13:06:03;2.20;;;1.42;;
36501;SDS011;25393;46.108;3.390;2022-12-05T13:08:39;4.13;;;1.80;;
36501;SDS011;25393;46.108;3.390;2022-12-05T13:11:37;2.88;;;1.95;;
36501;SDS011;25393;46.108;3.390;2022-12-05T13:14:11;1.95;;;1.40;;
36501;SDS011;25393;46.108;3.390;2022-12-05T13:16:43;5.25;;;1.88;;
36501;SDS011;25393;46.108;3.390;2022-12-05T13:21:56;3.28;;;1.83;;
36501;SDS011;25393;46.108;3.390;2022-12-05T13:24:27;2.55;;;1.50;;
36501;SDS011;25393;46.108;3.390;2022-12-05T13:26:56;2.00;;;1.30;;
36501;SDS011;25393;46.108;3.390;2022-12-05T13:29:35;2.90;;;1.98;;
36501;SDS011;25393;46.108;3.390;2022-12-05T13:32:06;2.67;;;1.65;;
36501;SDS011;25393;46.108;3.390;2022-12-05T13:35:11;4.57;;;1.67;;
36501;SDS011;25393;46.108;3.390;2022-12-05T13:38:05;4.35;;;1.85;;
36501;SDS011;25393;46.108;3.390;2022-12-05T13:40:59;1.80;;;1.38;;
36501;SDS011;25393;46.108;3.390;2022-12-05T13:43:46;2.08;;;1.45;;
36501;SDS011;25393;46.108;3.390;2022-12-05T13:46:32;1.73;;;1.40;;
36501;SDS011;25393;46.108;3.390;2022-12-05T13:49:05;2.65;;;1.60;;
36501;SDS011;25393;46.108;3.390;2022-12-05T13:51:43;2.33;;;1.60;;
36501;SDS011;25393;46.108;3.390;2022-12-05T13:54:20;2.10;;;1.33;;
36501;SDS011;25393;46.108;3.390;2022-12-05T13:56:56;4.30;;;1.75;;
36501;SDS011;25393;46.108;3.390;2022-12-05T14:02:50;2.05;;;1.35;;
36501;SDS011;25393;46.108;3.390;2022-12-05T14:07:50;2.00;;;1.50;;
36501;SDS011;25393;46.108;3.390;2022-12-05T14:13:02;2.05;;;1.30;;
36501;SDS011;25393;46.108;3.390;2022-12-05T14:15:49;1.90;;;1.20;;
36501;SDS011;25393;46.108;3.390;2022-12-05T14:26:11;3.15;;;1.83;;
36501;SDS011;25393;46.108;3.390;2022-12-05T14:34:54;2.38;;;1.52;;
36501;SDS011;25393;46.108;3.390;2022-12-05T14:37:34;5.00;;;2.10;;
36501;SDS011;25393;46.108;3.390;2022-12-05T14:42:53;2.92;;;1.67;;
36501;SDS011;25393;46.108;3.390;2022-12-05T14:45:34;2.63;;;1.42;;
36501;SDS011;25393;46.108;3.390;2022-12-05T14:50:46;2.25;;;1.63;;
36501;SDS011;25393;46.108;3.390;2022-12-05T14:58:52;3.47;;;2.38;;
36501;SDS011;25393;46.108;3.390;2022-12-05T15:01:25;6.45;;;2.90;;
36501;SDS011;25393;46.108;3.390;2022-12-05T15:06:33;1.73;;;1.10;;
36501;SDS011;25393;46.108;3.390;2022-12-05T15:09:09;1.73;;;1.50;;
36501;SDS011;25393;46.108;3.390;2022-12-05T15:12:04;2.10;;;1.35;;
36501;SDS011;25393;46.108;3.390;2022-12-05T15:14:47;5.10;;;1.55;;
36501;SDS011;25393;46.108;3.390;2022-12-05T15:17:20;2.00;;;1.40;;
36501;SDS011;25393;46.108;3.390;2022-12-05T15:19:56;3.95;;;1.60;;
36501;SDS011;25393;46.108;3.390;2022-12-05T15:22:29;3.28;;;1.60;;
36501;SDS011;25393;46.108;3.390;2022-12-05T15:25:17;4.53;;;1.35;;
36501;SDS011;25393;46.108;3.390;2022-12-05T15:27:52;2.25;;;1.52;;
36501;SDS011;25393;46.108;3.390;2022-12-05T15:30:24;1.80;;;1.17;;
36501;SDS011;25393;46.108;3.390;2022-12-05T15:32:52;2.58;;;1.50;;
36501;SDS011;25393;46.108;3.390;2022-12-05T15:35:25;3.10;;;1.55;;
36501;SDS011;25393;46.108;3.390;2022-12-05T15:40:23;2.17;;;1.60;;
36501;SDS011;25393;46.108;3.390;2022-12-05T15:42:52;2.38;;;1.55;;
36501;SDS011;25393;46.108;3.390;2022-12-05T15:47:56;3.45;;;1.55;;
36501;SDS011;25393;46.108;3.390;2022-12-05T15:55:47;2.10;;;1.30;;
36501;SDS011;25393;46.108;3.390;2022-12-05T15:58:27;2.30;;;1.73;;
36501;SDS011;25393;46.108;3.390;2022-12-05T16:01:12;1.80;;;1.38;;
36501;SDS011;25393;46.108;3.390;2022-12-05T16:06:56;3.83;;;2.55;;
36501;SDS011;25393;46.108;3.390;2022-12-05T16:09:30;6.03;;;2.80;;
36501;SDS011;25393;46.108;3.390;2022-12-05T16:12:02;5.68;;;2.75;;
36501;SDS011;25393;46.108;3.390;2022-12-05T16:14:32;6.32;;;3.50;;
36501;SDS011;25393;46.108;3.390;2022-12-05T16:17:22;6.22;;;3.47;;
36501;SDS011;25393;46.108;3.390;2022-12-05T16:19:49;4.60;;;2.88;;
36501;SDS011;25393;46.108;3.390;2022-12-05T16:22:18;6.65;;;3.30;;
36501;SDS011;25393;46.108;3.390;2022-12-05T16:24:55;9.82;;;2.88;;
36501;SDS011;25393;46.108;3.390;2022-12-05T16:27:27;9.93;;;3.20;;
36501;SDS011;25393;46.108;3.390;2022-12-05T16:32:48;6.55;;;3.50;;
36501;SDS011;25393;46.108;3.390;2022-12-05T16:45:51;9.43;;;3.40;;
36501;SDS011;25393;46.108;3.390;2022-12-05T16:53:39;11.00;;;7.10;;
36501;SDS011;25393;46.108;3.390;2022-12-05T16:56:19;11.02;;;6.60;;
36501;SDS011;25393;46.108;3.390;2022-12-05T16:58:49;7.40;;;3.60;;
36501;SDS011;25393;46.108;3.390;2022-12-05T17:01:18;10.02;;;5.00;;
36501;SDS011;25393;46.108;3.390;2022-12-05T17:03:51;9.17;;;4.00;;
36501;SDS011;25393;46.108;3.390;2022-12-05T17:06:19;6.13;;;4.20;;
36501;SDS011;25393;46.108;3.390;2022-12-05T17:08:49;8.70;;;4.60;;
36501;SDS011;25393;46.108;3.390;2022-12-05T17:11:51;6.17;;;3.80;;
36501;SDS011;25393;46.108;3.390;2022-12-05T17:14:12;7.60;;;4.23;;
36501;SDS011;25393;46.108;3.390;2022-12-05T17:16:40;8.63;;;4.83;;
36501;SDS011;25393;46.108;3.390;2022-12-05T17:19:08;8.73;;;5.03;;
36501;SDS011;25393;46.108;3.390;2022-12-05T17:21:36;14.50;;;5.30;;
36501;SDS011;25393;46.108;3.390;2022-12-05T17:24:04;13.27;;;5.83;;
36501;SDS011;25393;46.108;3.390;2022-12-05T17:26:31;10.80;;;5.57;;
36501;SDS011;25393;46.108;3.390;2022-12-05T17:28:58;8.33;;;5.37;;
36501;SDS011;25393;46.108;3.390;2022-12-05T17:31:24;10.67;;;6.00;;
36501;SDS011;25393;46.108;3.390;2022-12-05T17:33:52;12.90;;;6.37;;
36501;SDS011;25393;46.108;3.390;2022-12-05T17:36:19;11.47;;;6.03;;
36501;SDS011;25393;46.108;3.390;2022-12-05T17:38:46;11.33;;;5.90;;
36501;SDS011;25393;46.108;3.390;2022-12-05T17:41:17;10.27;;;5.30;;
36501;SDS011;25393;46.108;3.390;2022-12-05T17:43:45;11.93;;;4.90;;
36501;SDS011;25393;46.108;3.390;2022-12-05T17:46:14;11.23;;;5.07;;
36501;SDS011;25393;46.108;3.390;2022-12-05T17:48:42;9.23;;;4.70;;
36501;SDS011;25393;46.108;3.390;2022-12-05T17:51:09;11.70;;;5.50;;
36501;SDS011;25393;46.108;3.390;2022-12-05T17:53:38;11.23;;;5.10;;
36501;SDS011;25393;46.108;3.390;2022-12-05T17:56:04;9.90;;;5.73;;
36501;SDS011;25393;46.108;3.390;2022-12-05T17:58:31;12.77;;;6.70;;
36501;SDS011;25393;46.108;3.390;2022-12-05T18:00:58;12.97;;;7.43;;
36501;SDS011;25393;46.108;3.390;2022-12-05T18:03:26;12.97;;;6.17;;
36501;SDS011;25393;46.108;3.390;2022-12-05T18:05:53;12.97;;;6.13;;
36501;SDS011;25393;46.108;3.390;2022-12-05T18:08:20;12.63;;;6.30;;
36501;SDS011;25393;46.108;3.390;2022-12-05T18:10:49;15.63;;;5.97;;
36501;SDS011;25393;46.108;3.390;2022-12-05T18:13:16;12.63;;;6.00;;
36501;SDS011;25393;46.108;3.390;2022-12-05T18:15:45;11.33;;;6.80;;
36501;SDS011;25393;46.108;3.390;2022-12-05T18:18:14;14.13;;;7.77;;
36501;SDS011;25393;46.108;3.390;2022-12-05T18:20:42;16.93;;;8.03;;
36501;SDS011;25393;46.108;3.390;2022-12-05T18:23:09;16.83;;;8.17;;
36501;SDS011;25393;46.108;3.390;2022-12-05T18:25:36;15.63;;;7.70;;
36501;SDS011;25393;46.108;3.390;2022-12-05T18:28:02;14.20;;;6.77;;